To NAV CANADA Home Page Login to a new session Search on AWWS site Feedback and Comments Disclaimer Vers la page française équivalente Tips FAQ What's new on the site To the Forecasts and Observations / NOTAM section To "File a Flight Plan" website Publications and other links Update of the User's profile FIC Telephone Numbers My Weather Data Folder Route Weather Data Regional Weather Data Local Weather Data To the Forecasts and Observations / NOTAM section
Request Generated 04/24/2014 at 03:15:07 UTC . Weather information available at that time is displayed.

METAR/TAF

WHITEHORSE/ERIK NIELSEN INTL/YT    

METAR CYXY 240300Z 17010KT 20SM SCT050 OVC070 03/M01 A2967 RMK SC4AC4
SLP081=
METAR CYXY 240200Z 16012KT 20SM BKN050 OVC070 04/M01 A2968 RMK SC5AC3
SLP084=
METAR CYXY 240100Z 17011KT 15SM FEW030 OVC050 05/M01 A2969 RMK SC1SC7
SLP085=

TAF CYXY 232338Z 2400/2412 16010KT P6SM OVC050 TEMPO 2400/2406 5SM
-SHRASN OVC020
FM240600 18010KT P6SM SCT015 OVC040 TEMPO 2406/2412 2SM -SHSN
BKN015 OVC030
RMK NXT FCST BY 240600Z=
Your time UTC time
Weather data provided by Environment Canada and NAV CANADA